Time;durP1;ratioP1;P1;durP2;ratioP2;P2;SDS_P1;SDS_P2;PMS_P1;PMS_P2;Temp;Humidity;BMP_temperature;BMP_pressure;BME280_temperature;BME280_humidity;BME280_pressure;Samples;Min_cycle;Max_cycle;Signal;HPM_P1;HPM_P2
2022/01/19 00:00:48;;;;;;;;;7.25;6.00;;;;;21.12;35.16;102705.03;5063350;27;51057;-55
2022/01/19 00:03:14;;;;;;;;;6.00;6.00;;;;;21.11;34.76;102707.97;5064434;28;51990;-53
2022/01/19 00:05:39;;;;;;;;;7.00;6.00;;;;;21.09;34.87;102710.91;5060224;28;51249;-53
2022/01/19 00:08:05;;;;;;;;;6.75;6.75;;;;;21.08;34.97;102705.59;5067564;28;51269;-55
2022/01/19 00:10:31;;;;;;;;;9.25;7.50;;;;;21.08;35.21;102711.09;5068573;28;51251;-55
2022/01/19 00:12:57;;;;;;;;;6.00;6.00;;;;;21.07;34.95;102710.25;5059455;28;51727;-55
2022/01/19 00:15:26;;;;;;;;;7.25;6.25;;;;;21.05;35.36;102704.06;5059721;28;51608;-55
2022/01/19 00:17:57;;;;;;;;;8.75;4.25;;;;;21.04;34.83;102696.81;5066233;28;51208;-53
2022/01/19 00:20:24;;;;;;;;;6.00;5.00;;;;;21.03;35.07;102695.09;5061791;28;51133;-55
2022/01/19 00:22:50;;;;;;;;;8.25;7.00;;;;;21.02;34.76;102668.56;5077443;28;51027;-52
2022/01/19 00:25:16;;;;;;;;;6.00;5.50;;;;;21.00;34.97;102657.75;5070813;28;51036;-54
2022/01/19 00:27:42;;;;;;;;;6.00;6.00;;;;;21.00;35.13;102654.13;5059209;27;51196;-52
2022/01/19 00:30:08;;;;;;;;;8.25;6.00;;;;;20.97;35.18;102651.75;5067047;28;50996;-53
2022/01/19 00:32:33;;;;;;;;;9.50;7.00;;;;;20.95;35.04;102637.31;5070876;27;51960;-54
2022/01/19 00:34:59;;;;;;;;;6.00;6.00;;;;;20.95;35.04;102621.63;5068216;27;50973;-52
2022/01/19 00:37:25;;;;;;;;;7.00;7.00;;;;;20.94;34.85;102619.03;5058343;28;51096;-54
2022/01/19 00:39:51;;;;;;;;;7.50;4.00;;;;;20.92;35.38;102624.72;5060822;28;51319;-53
2022/01/19 00:42:16;;;;;;;;;4.50;4.50;;;;;20.92;35.19;102640.41;5066450;28;51880;-54
2022/01/19 00:44:41;;;;;;;;;7.25;6.25;;;;;20.92;35.09;102651.41;5073916;28;51035;-54
2022/01/19 00:47:07;;;;;;;;;7.50;7.50;;;;;20.89;35.26;102652.66;5076197;28;51135;-54
2022/01/19 00:49:32;;;;;;;;;8.25;6.75;;;;;20.88;35.07;102648.19;5068062;28;51108;-55
2022/01/19 00:51:57;;;;;;;;;5.75;5.75;;;;;20.88;35.24;102650.09;5060966;28;52848;-54
2022/01/19 00:54:23;;;;;;;;;7.50;5.75;;;;;20.87;35.32;102653.88;5059614;28;51057;-55
2022/01/19 00:56:48;;;;;;;;;7.00;5.50;;;;;20.85;34.93;102665.09;5072771;28;51069;-54
2022/01/19 00:59:14;;;;;;;;;6.50;4.50;;;;;20.85;35.42;102662.34;5071196;28;51047;-52
2022/01/19 01:01:40;;;;;;;;;6.00;6.00;;;;;20.84;35.43;102648.72;5068207;28;52023;-54
2022/01/19 01:04:05;;;;;;;;;6.50;4.75;;;;;20.83;35.49;102649.75;5075476;27;51319;-50
2022/01/19 01:06:31;;;;;;;;;6.75;5.00;;;;;20.81;35.19;102632.56;5065648;28;51043;-50
2022/01/19 01:08:56;;;;;;;;;6.75;5.75;;;;;20.83;35.40;102638.72;5065203;28;51259;-49
2022/01/19 01:11:28;;;;;;;;;6.75;6.50;;;;;20.80;35.21;102628.09;5059285;28;51846;-53
2022/01/19 01:16:40;;;;;;;;;2.75;2.75;;;;;20.79;35.18;102607.09;5077361;28;51207;-54
2022/01/19 01:19:08;;;;;;;;;4.00;3.75;;;;;20.78;35.16;102609.00;5073483;27;51242;-55
2022/01/19 01:21:34;;;;;;;;;6.50;6.50;;;;;20.77;35.22;102607.28;5058386;28;51149;-53
2022/01/19 01:24:00;;;;;;;;;4.00;4.00;;;;;20.75;35.05;102599.22;5057228;28;50982;-52
2022/01/19 01:26:25;;;;;;;;;6.75;5.50;;;;;20.76;35.14;102602.81;5074379;27;51123;-53
2022/01/19 01:28:51;;;;;;;;;4.75;4.75;;;;;20.74;35.44;102597.50;5075491;27;51363;-53
2022/01/19 01:31:16;;;;;;;;;7.75;6.00;;;;;20.73;35.02;102611.41;5076344;27;51080;-53
2022/01/19 01:33:42;;;;;;;;;5.25;5.25;;;;;20.73;35.26;102616.94;5076654;28;51120;-54
2022/01/19 01:36:08;;;;;;;;;4.00;4.00;;;;;20.73;35.30;102619.69;5068515;28;51367;-53
2022/01/19 01:38:37;;;;;;;;;4.75;4.00;;;;;20.71;35.38;102613.50;5064529;28;51368;-53
2022/01/19 01:41:03;;;;;;;;;6.75;5.00;;;;;20.70;35.24;102622.81;5067266;28;51993;-55
2022/01/19 01:43:29;;;;;;;;;6.00;6.00;;;;;20.69;35.46;102618.34;5063188;28;51103;-56
2022/01/19 01:46:01;;;;;;;;;3.75;3.75;;;;;20.69;35.23;102610.09;5057109;28;50968;-53
2022/01/19 01:48:27;;;;;;;;;5.00;5.00;;;;;20.69;35.75;102608.19;5064831;28;51262;-56
2022/01/19 01:53:37;;;;;;;;;5.00;5.00;;;;;20.68;35.68;102600.97;5056797;28;51027;-55
2022/01/19 01:56:04;;;;;;;;;7.25;6.25;;;;;20.68;35.34;102605.63;5064187;28;51064;-55
2022/01/19 01:58:33;;;;;;;;;4.75;4.50;;;;;20.67;35.43;102596.50;5064739;27;51115;-54
2022/01/19 02:00:59;;;;;;;;;6.00;6.00;;;;;20.65;35.30;102590.31;5061363;28;51079;-54
2022/01/19 02:03:25;;;;;;;;;3.25;3.25;;;;;20.65;35.51;102589.47;5065284;28;50934;-55
2022/01/19 02:08:40;;;;;;;;;4.25;4.00;;;;;20.63;35.35;102578.59;5064211;28;51248;-53
2022/01/19 02:21:39;;;;;;;;;5.50;4.75;;;;;20.57;35.74;102554.56;5057616;28;51533;-55
2022/01/19 02:24:09;;;;;;;;;4.50;4.00;;;;;20.58;35.61;102548.03;5071067;28;51385;-57
2022/01/19 02:26:51;;;;;;;;;5.00;5.00;;;;;20.56;35.43;102541.00;5071993;27;51053;-55
2022/01/19 02:42:28;;;;;;;;;4.00;4.00;;;;;20.52;35.99;102510.19;5056215;28;50938;-58
2022/01/19 02:49:53;;;;;;;;;14.75;13.25;;;;;20.51;34.83;102486.47;5063576;28;51664;-58
2022/01/19 02:52:20;;;;;;;;;12.00;10.75;;;;;20.49;34.73;102477.53;5072428;28;52792;-59
2022/01/19 02:54:47;;;;;;;;;11.25;9.25;;;;;20.46;34.17;102483.41;5062005;28;51478;-58
2022/01/19 02:57:14;;;;;;;;;12.25;8.25;;;;;20.43;34.72;102479.16;5068149;28;51125;-58
2022/01/19 03:11:00;;;;;;;;;7.75;5.00;;;;;20.35;34.58;102481.91;5065259;28;51081;-62
2022/01/19 03:13:25;;;;;;;;;6.00;6.00;;;;;20.33;34.89;102469.38;5067654;28;51762;-58
2022/01/19 03:15:51;;;;;;;;;8.00;6.00;;;;;20.33;34.60;102470.25;5070157;27;50973;-58
2022/01/19 03:18:16;;;;;;;;;8.50;6.75;;;;;20.33;34.53;102470.25;5063862;28;51107;-58
2022/01/19 03:20:41;;;;;;;;;6.75;5.75;;;;;20.31;34.62;102469.53;5075160;28;50990;-57
2022/01/19 03:23:20;;;;;;;;;8.25;8.00;;;;;20.31;35.05;102468.69;5075129;28;52215;-57
2022/01/19 03:25:49;;;;;;;;;9.25;6.50;;;;;20.30;35.00;102466.97;5066702;27;51348;-56
2022/01/19 03:28:15;;;;;;;;;5.00;5.00;;;;;20.30;35.14;102462.31;5062348;28;51069;-56
2022/01/19 03:30:42;;;;;;;;;7.00;6.50;;;;;20.30;35.46;102455.97;5060542;27;50915;-56
2022/01/19 03:33:07;;;;;;;;;4.25;4.00;;;;;20.29;35.13;102460.59;5056040;28;51795;-59
2022/01/19 03:35:33;;;;;;;;;5.00;3.50;;;;;20.28;35.31;102461.66;5071184;28;51220;-58
2022/01/19 03:37:58;;;;;;;;;6.00;4.25;;;;;20.29;34.88;102465.25;5055002;28;51109;-58
2022/01/19 03:40:24;;;;;;;;;6.00;6.00;;;;;20.27;35.16;102457.19;5063506;28;51383;-59
2022/01/19 03:42:50;;;;;;;;;6.00;6.00;;;;;20.26;34.85;102458.22;5063023;28;51165;-59
2022/01/19 03:45:16;;;;;;;;;6.75;4.75;;;;;20.27;35.27;102456.34;5069623;28;51461;-58
2022/01/19 03:47:46;;;;;;;;;4.75;4.50;;;;;20.27;35.04;102445.34;5070071;28;51062;-58
2022/01/19 03:50:11;;;;;;;;;6.50;5.50;;;;;20.26;35.18;102446.38;5057715;27;51479;-58
2022/01/19 03:52:37;;;;;;;;;7.00;4.00;;;;;20.25;35.17;102450.16;5059371;28;51336;-58
2022/01/19 03:55:04;;;;;;;;;5.25;5.00;;;;;20.25;35.43;102447.41;5064851;28;51329;-59
2022/01/19 03:57:29;;;;;;;;;5.25;5.25;;;;;20.25;35.21;102441.91;5063836;28;51428;-58
2022/01/19 03:59:55;;;;;;;;;7.25;6.50;;;;;20.24;35.19;102432.81;5066417;28;51801;-58
2022/01/19 04:02:20;;;;;;;;;5.75;5.75;;;;;20.24;35.42;102431.94;5066208;28;51150;-56
2022/01/19 04:04:54;;;;;;;;;4.75;4.75;;;;;20.23;35.31;102438.50;5065299;28;51136;-55
2022/01/19 04:07:21;;;;;;;;;6.50;5.25;;;;;20.23;35.14;102433.84;5061057;28;51208;-55
2022/01/19 04:09:47;;;;;;;;;4.75;4.75;;;;;20.23;35.02;102432.97;5060981;28;51085;-58
2022/01/19 04:12:18;;;;;;;;;6.75;5.00;;;;;20.22;35.37;102423.88;5065329;28;51792;-56
2022/01/19 04:14:45;;;;;;;;;5.50;5.50;;;;;20.23;35.25;102421.97;5062088;28;51504;-57
2022/01/19 04:17:13;;;;;;;;;5.25;5.00;;;;;20.20;35.38;102420.44;5058458;28;52042;-59
2022/01/19 04:22:06;;;;;;;;;5.25;4.00;;;;;20.19;35.36;102425.06;5058083;28;51640;-57
2022/01/19 04:24:33;;;;;;;;;5.00;5.00;;;;;20.19;35.40;102426.97;5065262;28;51060;-57
2022/01/19 04:27:31;;;;;;;;;6.00;5.00;;;;;20.17;35.20;102421.66;5071537;27;51236;-58
2022/01/19 04:29:53;;;;;;;;;7.50;4.50;;;;;20.17;35.41;102432.66;5071368;27;51240;-58
2022/01/19 04:32:25;;;;;;;;;7.00;6.00;;;;;20.16;35.33;102432.84;5069324;28;52818;-58
2022/01/19 04:34:51;;;;;;;;;6.00;5.25;;;;;20.16;35.76;102430.94;5062471;28;51453;-54
2022/01/19 05:06:28;;;;;;;;;11.50;10.25;;;;;20.09;35.51;102427.19;5061540;28;51218;-55
2022/01/19 05:09:09;;;;;;;;;14.25;12.75;;;;;20.09;35.02;102427.19;5066213;28;51204;-54
2022/01/19 05:14:19;;;;;;;;;20.25;15.25;;;;;20.05;33.97;102425.00;5074578;28;51101;-58
2022/01/19 05:16:44;;;;;;;;;15.50;15.00;;;;;20.02;33.88;102430.88;5068995;28;51046;-56
2022/01/19 05:19:09;;;;;;;;;19.50;16.50;;;;;19.99;34.00;102423.81;5057401;28;51212;-54
2022/01/19 05:21:35;;;;;;;;;20.25;16.50;;;;;19.95;33.60;102422.50;5064169;28;51147;-56
2022/01/19 05:24:06;;;;;;;;;16.75;14.75;;;;;19.94;33.34;102425.44;5058199;28;51018;-58
2022/01/19 05:26:32;;;;;;;;;18.75;14.00;;;;;19.91;33.21;102423.03;5074697;27;51466;-58
2022/01/19 05:28:57;;;;;;;;;18.25;15.75;;;;;19.87;33.24;102417.88;5071815;27;51191;-59
2022/01/19 05:31:23;;;;;;;;;18.75;18.00;;;;;19.85;33.18;102424.59;5062086;28;51301;-59
2022/01/19 05:33:49;;;;;;;;;16.75;16.75;;;;;19.81;33.06;102421.38;5072634;28;52730;-59
2022/01/19 05:36:14;;;;;;;;;16.25;14.75;;;;;19.78;33.03;102424.47;5068544;28;51110;-58
2022/01/19 05:38:39;;;;;;;;;17.25;16.25;;;;;19.76;32.85;102417.44;5075685;28;51123;-58
2022/01/19 05:41:05;;;;;;;;;19.25;16.50;;;;;19.73;33.02;102417.81;5061800;28;50957;-58
2022/01/19 05:43:30;;;;;;;;;15.25;15.00;;;;;19.70;32.76;102410.78;5066618;28;51044;-59
2022/01/19 05:45:55;;;;;;;;;21.25;15.50;;;;;19.68;33.08;102411.97;5076903;28;51275;-55
2022/01/19 05:48:21;;;;;;;;;14.75;14.75;;;;;19.67;33.14;102410.25;5069625;28;51843;-54
2022/01/19 05:50:46;;;;;;;;;10.75;10.75;;;;;19.72;33.42;102410.59;5072330;28;51152;-55
2022/01/19 05:53:13;;;;;;;;;12.50;10.00;;;;;19.80;33.36;102413.28;5063802;28;51141;-54
2022/01/19 05:55:38;;;;;;;;;12.25;12.25;;;;;19.89;33.17;102410.31;5065520;28;50921;-54
2022/01/19 05:58:03;;;;;;;;;11.25;9.50;;;;;20.01;33.31;102412.63;5076232;28;51533;-53
2022/01/19 06:00:29;;;;;;;;;12.75;10.25;;;;;20.10;33.30;102404.16;5068043;28;51052;-56
2022/01/19 06:02:54;;;;;;;;;9.50;8.00;;;;;20.20;33.42;102409.41;5066372;28;51609;-56
2022/01/19 06:05:19;;;;;;;;;8.75;8.00;;;;;20.31;33.28;102413.63;5064762;28;51413;-59
2022/01/19 06:07:47;;;;;;;;;11.25;8.25;;;;;20.39;33.73;102410.84;5056533;28;52253;-63
2022/01/19 06:10:42;;;;;;;;;7.75;6.50;;;;;20.49;33.83;102410.63;5065686;27;51088;-58
2022/01/19 06:12:59;;;;;;;;;10.00;9.25;;;;;20.58;33.91;102409.50;5065848;27;52149;-57
2022/01/19 06:15:25;;;;;;;;;11.25;9.25;;;;;20.66;33.85;102412.19;5069775;28;51212;-58
2022/01/19 06:17:50;;;;;;;;;5.25;4.00;;;;;20.73;33.67;102411.25;5071688;28;51323;-58
2022/01/19 06:20:16;;;;;;;;;6.75;6.75;;;;;20.79;33.75;102412.41;5070381;28;51194;-58
2022/01/19 06:22:41;;;;;;;;;7.00;7.00;;;;;20.86;33.94;102412.53;5057656;28;51134;-58
2022/01/19 06:25:07;;;;;;;;;7.50;6.25;;;;;20.90;33.75;102411.94;5057821;28;50986;-58
2022/01/19 06:27:33;;;;;;;;;5.75;5.50;;;;;20.97;33.63;102412.06;5070764;27;51376;-58
2022/01/19 06:29:58;;;;;;;;;4.75;4.75;;;;;21.02;33.55;102406.84;5074049;28;51199;-59
2022/01/19 06:32:23;;;;;;;;;7.25;5.75;;;;;21.06;34.01;102401.81;5056406;28;52395;-58
2022/01/19 06:34:49;;;;;;;;;4.75;4.00;;;;;21.12;34.36;102399.16;5074162;28;50965;-58
2022/01/19 06:37:14;;;;;;;;;4.25;4.00;;;;;21.18;34.38;102401.16;5058074;28;51222;-58
2022/01/19 06:39:39;;;;;;;;;5.50;5.00;;;;;21.24;34.44;102410.56;5058527;27;51250;-58
2022/01/19 06:42:05;;;;;;;;;4.25;4.25;;;;;21.29;34.47;102405.38;5064606;28;51702;-58
2022/01/19 06:44:30;;;;;;;;;6.50;5.75;;;;;21.35;33.99;102400.97;5073441;28;51136;-58
2022/01/19 06:46:56;;;;;;;;;5.00;5.00;;;;;21.40;34.26;102404.03;5071459;27;51003;-58
2022/01/19 06:49:21;;;;;;;;;5.50;5.25;;;;;21.45;34.08;102396.88;5064416;28;51391;-58
2022/01/19 06:51:46;;;;;;;;;5.75;4.00;;;;;21.51;34.19;102395.28;5056677;28;51321;-59
2022/01/19 06:54:12;;;;;;;;;5.00;5.00;;;;;21.56;34.98;102401.91;5062335;28;51351;-59
2022/01/19 06:56:37;;;;;;;;;5.25;5.00;;;;;21.61;35.03;102404.97;5055868;28;51051;-60
2022/01/19 06:59:04;;;;;;;;;5.25;5.25;;;;;21.66;34.59;102401.63;5074857;28;51145;-59
2022/01/19 07:01:32;;;;;;;;;4.25;3.50;;;;;21.70;35.20;102405.72;5074056;28;51221;-59
2022/01/19 07:03:57;;;;;;;;;5.00;5.00;;;;;21.76;34.94;102404.94;5057803;28;51381;-59
2022/01/19 07:06:23;;;;;;;;;6.00;6.00;;;;;21.82;34.97;102404.16;5065662;27;51181;-59
2022/01/19 07:08:48;;;;;;;;;5.75;5.75;;;;;21.87;35.31;102398.91;5072874;28;51210;-59
2022/01/19 07:11:13;;;;;;;;;6.50;6.50;;;;;21.92;35.47;102391.97;5059103;28;51023;-58
2022/01/19 07:13:39;;;;;;;;;8.00;7.00;;;;;21.97;35.11;102401.34;5066176;28;51033;-58
2022/01/19 07:16:04;;;;;;;;;7.25;6.50;;;;;22.02;34.79;102400.78;5067280;28;51446;-58
2022/01/19 07:18:29;;;;;;;;;9.00;7.25;;;;;22.06;34.83;102394.69;5067537;27;51005;-59
2022/01/19 07:20:55;;;;;;;;;7.00;7.00;;;;;22.10;34.84;102397.94;5057551;28;51237;-58
2022/01/19 07:23:20;;;;;;;;;8.50;8.00;;;;;22.15;35.11;102403.72;5057431;28;51076;-59
2022/01/19 07:25:45;;;;;;;;;13.25;9.50;;;;;22.19;34.53;102411.38;5060847;28;51219;-59
2022/01/19 07:28:11;;;;;;;;;9.25;9.25;;;;;22.24;34.31;102412.72;5063787;27;50947;-60
2022/01/19 07:30:37;;;;;;;;;11.25;9.75;;;;;22.28;34.22;102417.63;5073550;28;51209;-60
2022/01/19 07:33:03;;;;;;;;;12.00;9.75;;;;;22.31;33.94;102409.00;5073486;28;51073;-61
2022/01/19 07:35:29;;;;;;;;;19.50;10.50;;;;;22.34;34.33;102416.88;5064092;28;51205;-59
2022/01/19 07:37:54;;;;;;;;;11.00;10.25;;;;;22.38;33.63;102411.78;5057036;28;51312;-58
2022/01/19 07:40:20;;;;;;;;;8.00;8.00;;;;;22.44;33.83;102422.91;5062169;28;51272;-58
2022/01/19 07:42:45;;;;;;;;;11.25;11.25;;;;;22.48;34.09;102418.69;5056895;27;51184;-58
2022/01/19 07:45:11;;;;;;;;;15.50;14.50;;;;;22.55;33.39;102420.69;5055066;28;51235;-58
2022/01/19 07:47:36;;;;;;;;;10.75;10.75;;;;;22.56;33.79;102412.19;5055570;28;51279;-59
2022/01/19 07:50:04;;;;;;;;;14.50;9.50;;;;;22.60;33.42;102418.16;5063386;28;51979;-58
2022/01/19 07:52:29;;;;;;;;;12.25;10.50;;;;;22.62;33.57;102411.41;5075117;28;50894;-58
2022/01/19 07:54:54;;;;;;;;;15.00;14.00;;;;;22.61;33.00;102411.56;5077480;28;50922;-58
2022/01/19 07:57:20;;;;;;;;;11.50;11.25;;;;;22.59;32.78;102416.44;5079558;27;50946;-60
2022/01/19 07:59:46;;;;;;;;;13.25;12.50;;;;;22.59;32.77;102417.31;5079191;27;51702;-60
2022/01/19 08:02:12;;;;;;;;;11.25;10.25;;;;;22.60;32.66;102427.28;5078849;28;51145;-60
2022/01/19 08:04:38;;;;;;;;;17.00;14.00;;;;;22.61;32.56;102429.00;5079028;27;51102;-61
2022/01/19 08:07:04;;;;;;;;;15.00;13.25;;;;;22.63;32.79;102417.78;5078674;28;51339;-60
2022/01/19 08:09:31;;;;;;;;;22.25;15.25;;;;;22.64;32.43;102420.34;5078620;28;51078;-60
2022/01/19 08:11:56;;;;;;;;;15.50;13.25;;;;;22.67;32.51;102421.84;5077402;28;51418;-60
2022/01/19 08:14:24;;;;;;;;;14.50;12.25;;;;;22.67;32.20;102419.09;5079448;28;51080;-61
2022/01/19 08:16:53;;;;;;;;;15.75;13.25;;;;;22.67;32.36;102413.56;5078927;27;51058;-60
2022/01/19 08:19:19;;;;;;;;;14.50;14.00;;;;;22.67;32.10;102416.31;5078524;27;51981;-60
2022/01/19 08:21:44;;;;;;;;;16.50;14.25;;;;;22.67;31.85;102413.56;5078473;27;51105;-62
2022/01/19 08:24:09;;;;;;;;;10.75;9.75;;;;;22.69;32.29;102416.97;5078795;27;51026;-61
2022/01/19 08:26:35;;;;;;;;;18.50;15.00;;;;;22.70;32.47;102419.53;5079157;27;51016;-61
2022/01/19 08:29:01;;;;;;;;;19.25;14.75;;;;;22.72;31.82;102422.13;5078608;28;52274;-61
2022/01/19 08:31:26;;;;;;;;;17.00;14.25;;;;;22.74;32.08;102425.53;5064700;28;51187;-60
2022/01/19 08:33:51;;;;;;;;;21.00;15.00;;;;;22.75;32.47;102427.22;5058264;28;51132;-60
2022/01/19 08:36:17;;;;;;;;;16.25;12.00;;;;;22.75;32.25;102432.75;5058592;28;51023;-62
2022/01/19 08:38:43;;;;;;;;;18.50;13.00;;;;;22.77;31.76;102444.47;5057909;28;51949;-63
2022/01/19 08:41:09;;;;;;;;;16.00;14.75;;;;;22.77;31.90;102439.78;5057941;28;51153;-62
2022/01/19 08:43:34;;;;;;;;;13.25;12.75;;;;;22.80;31.85;102445.97;5058494;28;51168;-61
2022/01/19 08:46:00;;;;;;;;;16.00;15.00;;;;;22.83;32.25;102440.06;5058403;28;51267;-62
2022/01/19 08:48:27;;;;;;;;;15.75;13.25;;;;;22.86;31.51;102440.53;5057560;28;51129;-62
2022/01/19 08:50:53;;;;;;;;;15.25;12.25;;;;;22.89;32.11;102450.31;5057958;28;50930;-62
2022/01/19 08:53:19;;;;;;;;;12.75;11.50;;;;;22.93;31.79;102446.13;5057724;28;51177;-61
2022/01/19 08:55:44;;;;;;;;;15.50;11.75;;;;;22.96;31.83;102449.31;5058154;28;51402;-61
2022/01/19 08:58:13;;;;;;;;;15.75;12.25;;;;;22.99;31.71;102453.59;5057565;27;51107;-60
2022/01/19 09:00:39;;;;;;;;;12.00;12.00;;;;;23.01;31.46;102449.56;5057853;28;51414;-60
2022/01/19 09:03:04;;;;;;;;;12.50;10.75;;;;;23.06;31.58;102442.59;5057778;28;50900;-60
2022/01/19 09:05:30;;;;;;;;;9.00;8.75;;;;;23.10;31.40;102453.03;5060963;28;50964;-62
2022/01/19 09:07:55;;;;;;;;;12.50;11.25;;;;;23.13;31.25;102454.53;5077645;27;51157;-61
2022/01/19 09:10:22;;;;;;;;;12.50;10.00;;;;;23.13;31.55;102458.16;5077638;27;50982;-61
2022/01/19 09:12:47;;;;;;;;;12.50;11.25;;;;;23.15;31.51;102452.44;5078362;27;51016;-60
2022/01/19 09:15:15;;;;;;;;;14.25;13.00;;;;;23.15;31.38;102463.50;5078461;27;50985;-61
2022/01/19 09:17:41;;;;;;;;;11.50;10.25;;;;;23.14;30.80;102464.56;5077569;27;52831;-60
2022/01/19 09:20:09;;;;;;;;;11.75;11.50;;;;;23.11;30.85;102468.56;5077806;28;51024;-59
2022/01/19 09:22:34;;;;;;;;;12.50;12.00;;;;;23.10;30.90;102463.25;5077387;27;51036;-59
2022/01/19 09:25:01;;;;;;;;;12.75;10.75;;;;;23.09;30.85;102461.53;5078351;28;50992;-60
2022/01/19 09:27:26;;;;;;;;;10.25;9.50;;;;;23.07;30.99;102449.84;5077333;28;51645;-60
2022/01/19 09:29:51;;;;;;;;;15.75;10.75;;;;;23.06;30.76;102454.50;5077908;27;51057;-58
2022/01/19 09:32:17;;;;;;;;;13.00;11.00;;;;;23.04;31.09;102457.47;5077663;28;51108;-59
2022/01/19 09:34:48;;;;;;;;;13.25;10.50;;;;;23.03;31.36;102466.84;5077745;27;51034;-61
2022/01/19 09:37:16;;;;;;;;;11.25;9.25;;;;;23.02;31.06;102467.84;5077282;27;52782;-62
2022/01/19 09:39:42;;;;;;;;;13.50;10.00;;;;;23.03;31.27;102477.88;5077792;28;51581;-60
2022/01/19 09:42:07;;;;;;;;;12.75;11.00;;;;;23.03;31.58;102464.06;5077912;27;50977;-61
2022/01/19 09:44:33;;;;;;;;;14.50;10.25;;;;;23.03;31.33;102464.06;5077619;27;50958;-60
2022/01/19 09:46:59;;;;;;;;;11.25;7.75;;;;;23.04;31.15;102470.44;5076934;27;51905;-60
2022/01/19 09:49:25;;;;;;;;;9.00;9.00;;;;;23.04;31.43;102474.06;5076995;27;51048;-62
2022/01/19 09:51:51;;;;;;;;;11.25;10.00;;;;;23.04;31.48;102460.25;5076902;28;51112;-59
2022/01/19 09:54:20;;;;;;;;;10.00;9.75;;;;;23.06;31.78;102462.81;5077566;28;50960;-61
2022/01/19 09:56:47;;;;;;;;;10.00;9.00;;;;;23.08;31.59;102462.59;5076988;27;51813;-62
2022/01/19 09:59:14;;;;;;;;;10.75;7.75;;;;;;;;5076750;28;50982;-62
2022/01/19 10:01:57;;;;;;;;;9.25;9.25;;;;;23.11;32.01;102459.41;5077290;27;51082;-59
2022/01/19 10:04:26;;;;;;;;;9.25;9.00;;;;;23.13;31.76;102457.31;5077396;27;51016;-62
2022/01/19 10:07:17;;;;;;;;;8.25;8.00;;;;;23.15;31.90;102453.31;5076232;28;51014;-61
2022/01/19 10:10:03;;;;;;;;;12.50;9.25;;;;;23.15;31.90;102458.84;5067415;28;51201;-61
2022/01/19 10:18:21;;;;;;;;;8.75;7.25;;;;;23.18;31.92;102465.88;5076605;28;51049;-61
2022/01/19 10:21:03;;;;;;;;;9.00;8.00;;;;;23.19;31.66;102464.81;5076702;27;51347;-61
2022/01/19 10:23:41;;;;;;;;;10.75;8.50;;;;;23.19;31.84;102473.94;5075337;28;51218;-60
2022/01/19 10:26:12;;;;;;;;;8.75;8.25;;;;;23.20;31.74;102472.03;5076665;27;51043;-60
2022/01/19 10:29:01;;;;;;;;;12.75;10.50;;;;;23.15;31.75;102456.06;5076164;27;51188;-60
2022/01/19 10:31:28;;;;;;;;;18.00;15.50;;;;;23.10;30.60;102453.03;5076747;27;51303;-59
2022/01/19 10:34:16;;;;;;;;;23.00;15.00;;;;;23.07;30.87;102472.81;5076275;27;51145;-57
2022/01/19 10:36:55;;;;;;;;;21.50;17.25;;;;;23.03;30.87;102471.47;5076261;27;51124;-59
2022/01/19 10:39:22;;;;;;;;;27.25;22.50;;;;;22.97;30.42;102472.28;5074946;28;51973;-59
2022/01/19 10:42:13;;;;;;;;;24.00;21.00;;;;;22.84;30.54;102467.50;5076548;27;51429;-60
2022/01/19 10:44:41;;;;;;;;;24.50;24.25;;;;;22.70;30.26;102462.88;5076318;27;50977;-59
2022/01/19 10:47:07;;;;;;;;;24.50;21.50;;;;;22.60;30.75;102470.63;5076431;27;51453;-59
2022/01/19 10:49:49;;;;;;;;;24.75;22.25;;;;;22.50;30.39;102465.44;5075898;27;51795;-59
2022/01/19 10:52:42;;;;;;;;;25.75;25.25;;;;;22.39;30.45;102461.28;5075728;27;51036;-59
2022/01/19 10:55:11;;;;;;;;;29.75;25.75;;;;;22.29;30.63;102448.88;5076291;27;51096;-60
2022/01/19 10:57:40;;;;;;;;;27.25;23.00;;;;;22.19;30.46;102449.19;5076106;27;51119;-60
2022/01/19 11:00:25;;;;;;;;;25.50;22.75;;;;;22.13;30.58;102461.00;5075365;27;51142;-59
2022/01/19 11:02:53;;;;;;;;;24.25;20.25;;;;;22.09;30.80;102465.19;5074316;28;51435;-58
2022/01/19 11:05:41;;;;;;;;;24.00;21.00;;;;;22.04;30.91;102454.72;5075682;27;51272;-59
2022/01/19 11:08:07;;;;;;;;;22.00;19.75;;;;;22.01;31.30;102449.59;5075365;27;51021;-57
2022/01/19 11:10:33;;;;;;;;;24.50;21.75;;;;;21.98;30.73;102446.34;5075417;27;51686;-58
2022/01/19 11:12:59;;;;;;;;;28.00;23.75;;;;;21.97;31.37;102441.88;5075654;27;51024;-58
2022/01/19 11:15:24;;;;;;;;;53.50;41.00;;;;;21.93;31.41;102438.66;5075124;27;50907;-57
2022/01/19 11:17:50;;;;;;;;;52.00;41.25;;;;;21.92;32.21;102436.97;5075197;28;50989;-58
2022/01/19 11:20:19;;;;;;;;;59.75;41.75;;;;;21.92;32.19;102436.09;5075519;27;50922;-59
2022/01/19 11:23:15;;;;;;;;;54.00;38.75;;;;;21.90;33.02;102430.78;5075221;27;51703;-51
2022/01/19 11:25:56;;;;;;;;;50.50;37.50;;;;;21.88;32.98;102425.47;5075455;27;51159;-55
2022/01/19 11:28:28;;;;;;;;;45.50;35.50;;;;;21.89;32.89;102427.19;5054817;28;51213;-55
2022/01/19 11:30:54;;;;;;;;;47.00;33.50;;;;;21.88;33.18;102421.81;5054741;28;52503;-54
2022/01/19 11:33:26;;;;;;;;;47.00;35.25;;;;;21.88;33.27;102416.31;5054976;28;51480;-57
2022/01/19 11:36:16;;;;;;;;;33.50;31.00;;;;;21.88;32.81;102413.56;5055224;28;51046;-57
2022/01/19 11:38:45;;;;;;;;;35.50;27.25;;;;;21.93;32.80;102416.59;5051814;28;51489;-58
2022/01/19 11:41:10;;;;;;;;;33.75;28.50;;;;;21.99;32.63;102412.19;5054574;28;51792;-57
2022/01/19 11:43:50;;;;;;;;;35.67;30.67;;;;;22.05;33.06;102401.25;5054903;28;51120;-57
2022/01/19 11:46:31;;;;;;;;;28.75;24.25;;;;;22.13;32.85;102406.66;5056384;28;51193;-55
2022/01/19 11:49:03;;;;;;;;;36.25;28.50;;;;;22.19;32.37;102402.25;5055587;28;51290;-57
2022/01/19 11:51:36;;;;;;;;;32.00;21.75;;;;;22.26;32.31;102388.53;5056729;28;51137;-54
2022/01/19 11:54:12;;;;;;;;;23.50;21.50;;;;;22.33;33.03;102389.47;5054521;28;51344;-52
2022/01/19 11:56:59;;;;;;;;;27.50;24.00;;;;;22.41;32.92;102387.44;5055965;28;51094;-54
2022/01/19 11:59:30;;;;;;;;;26.00;21.00;;;;;22.48;32.67;102384.72;5054653;28;51268;-54
2022/01/19 12:02:21;;;;;;;;;23.50;19.75;;;;;22.53;33.19;102384.97;5064042;28;51027;-55
2022/01/19 12:04:54;;;;;;;;;19.50;19.50;;;;;22.59;33.40;102383.31;5057817;28;51026;-52
2022/01/19 12:07:40;;;;;;;;;16.25;13.25;;;;;22.64;32.85;102378.06;5074124;27;51206;-51
2022/01/19 12:10:12;;;;;;;;;21.75;20.00;;;;;22.66;32.95;102381.47;5066436;28;51020;-53
2022/01/19 12:12:46;;;;;;;;;19.75;15.75;;;;;22.66;33.11;102375.94;5062226;28;52150;-51
2022/01/19 12:15:52;;;;;;;;;19.25;17.25;;;;;22.63;32.92;102374.44;5072794;28;51276;-54
2022/01/19 12:18:51;;;;;;;;;19.25;16.50;;;;;22.60;33.31;102373.97;5074346;27;51156;-53
2022/01/19 12:21:45;;;;;;;;;16.00;14.00;;;;;22.57;32.90;102371.63;5072967;28;51187;-53
2022/01/19 12:24:29;;;;;;;;;23.50;19.25;;;;;22.55;33.33;102368.19;5073466;28;51911;-51
2022/01/19 12:26:59;;;;;;;;;17.50;14.25;;;;;22.53;33.08;102364.78;5062502;27;51684;-53
2022/01/19 12:29:34;;;;;;;;;18.25;14.25;;;;;22.50;33.11;102362.41;5062692;28;50969;-52
2022/01/19 12:32:00;;;;;;;;;16.25;16.00;;;;;22.45;33.64;102350.06;5055846;28;51009;-54
2022/01/19 12:34:39;;;;;;;;;22.50;15.50;;;;;22.42;33.63;102350.47;5073715;27;51126;-56
2022/01/19 12:37:04;;;;;;;;;17.50;14.75;;;;;22.40;33.66;102349.78;5058421;28;51825;-55
2022/01/19 12:39:29;;;;;;;;;19.75;15.00;;;;;22.39;33.33;102356.38;5061531;27;51150;-52
2022/01/19 12:42:28;;;;;;;;;20.25;15.25;;;;;22.37;33.16;102358.47;5060422;27;51451;-54
2022/01/19 12:44:56;;;;;;;;;16.25;13.75;;;;;22.33;33.66;102348.91;5060681;28;52158;-53
2022/01/19 12:47:24;;;;;;;;;20.50;14.50;;;;;22.31;33.36;102339.13;5060229;28;51304;-53
2022/01/19 12:49:54;;;;;;;;;17.25;14.25;;;;;22.28;33.67;102339.50;5065568;28;51216;-53
2022/01/19 12:52:23;;;;;;;;;14.50;13.00;;;;;22.28;33.73;102333.97;5065718;28;51602;-52